createdAt,value
2018-09-28T00:02:19.885Z,58.23
2018-09-28T00:04:50.359Z,56.10
2018-09-28T00:07:21.015Z,57.56
2018-09-28T00:09:51.571Z,57.11
2018-09-28T00:12:22.100Z,58.12
2018-09-28T00:14:52.535Z,57.84
2018-09-28T00:17:23.296Z,57.15
2018-09-28T00:19:53.750Z,56.09
2018-09-28T00:22:24.202Z,55.83
2018-09-28T00:24:54.687Z,58.24
2018-09-28T00:27:25.567Z,60.21
2018-09-28T00:29:56.424Z,61.12
2018-09-28T00:32:26.974Z,61.38
2018-09-28T00:34:57.407Z,62.16
2018-09-28T00:37:27.866Z,62.88
2018-09-28T00:39:58.487Z,62.86
2018-09-28T00:42:28.946Z,62.83
2018-09-28T00:44:59.380Z,62.58
2018-09-28T00:47:29.995Z,61.02
2018-09-28T00:50:00.545Z,61.18
2018-09-28T00:52:31.043Z,60.82
2018-09-28T00:55:01.556Z,60.80
2018-09-28T00:57:32.142Z,60.22
2018-09-28T01:00:02.643Z,58.71
2018-09-28T01:02:33.209Z,58.32
2018-09-28T01:05:03.697Z,58.66
2018-09-28T01:07:34.294Z,58.34
2018-09-28T01:10:05.753Z,59.14
2018-09-28T01:12:37.205Z,59.61
2018-09-28T01:15:07.861Z,59.92
2018-09-28T01:17:38.279Z,61.81
2018-09-28T01:20:08.807Z,63.69
2018-09-28T01:22:39.523Z,64.34
2018-09-28T01:25:09.950Z,64.51
2018-09-28T01:27:40.507Z,64.46
2018-09-28T01:30:11.102Z,65.12
2018-09-28T01:32:41.862Z,65.64
2018-09-28T01:35:12.356Z,66.29
2018-09-28T01:37:44.682Z,66.47
2018-09-28T01:40:15.109Z,66.30
2018-09-28T01:42:45.779Z,65.61
2018-09-28T01:45:16.360Z,65.21
2018-09-28T01:47:46.883Z,64.41
2018-09-28T01:50:17.463Z,63.94
2018-09-28T01:52:47.963Z,63.64
2018-09-28T01:55:18.389Z,64.34
2018-09-28T01:57:48.728Z,64.73
2018-09-28T02:00:19.241Z,64.32
2018-09-28T02:02:49.836Z,64.69
2018-09-28T02:05:20.333Z,64.79
2018-09-28T02:07:51.008Z,65.28
2018-09-28T02:10:21.551Z,65.38
2018-09-28T02:12:52.031Z,65.65
2018-09-28T02:15:22.552Z,66.63
2018-09-28T02:17:53.242Z,67.70
2018-09-28T02:20:23.590Z,67.68
2018-09-28T02:22:54.328Z,67.90
2018-09-28T02:25:24.847Z,67.89
2018-09-28T02:27:55.341Z,67.07
2018-09-28T02:30:26.109Z,66.44
2018-09-28T02:32:56.687Z,66.19
2018-09-28T02:35:27.232Z,65.90
2018-09-28T02:37:57.836Z,66.81
2018-09-28T02:40:28.170Z,67.14
2018-09-28T02:42:58.503Z,66.97
2018-09-28T02:45:29.064Z,67.14
2018-09-28T02:47:59.705Z,66.87
2018-09-28T02:50:30.092Z,66.62
2018-09-28T02:53:00.617Z,66.02
2018-09-28T02:55:31.103Z,65.94
2018-09-28T02:58:01.553Z,66.07
2018-09-28T03:00:32.078Z,67.03
2018-09-28T03:03:02.667Z,66.88
2018-09-28T03:05:33.037Z,66.84
2018-09-28T03:08:03.491Z,66.92
2018-09-28T03:10:34.002Z,67.08
2018-09-28T03:13:04.899Z,67.31
2018-09-28T03:15:35.297Z,67.65
2018-09-28T03:18:05.858Z,68.14
2018-09-28T03:20:36.345Z,68.02
2018-09-28T03:23:06.734Z,68.43
2018-09-28T03:25:37.859Z,68.04
2018-09-28T03:28:08.949Z,68.56
2018-09-28T03:30:39.426Z,68.94
2018-09-28T03:33:09.859Z,69.04
2018-09-28T03:35:40.416Z,68.39
2018-09-28T03:38:11.010Z,68.11
2018-09-28T03:40:41.447Z,68.58
2018-09-28T03:43:11.990Z,68.19
2018-09-28T03:45:42.563Z,68.58
2018-09-28T03:48:13.057Z,68.61
2018-09-28T03:50:43.625Z,68.64
2018-09-28T03:53:14.130Z,68.71
2018-09-28T03:55:44.477Z,69.00
2018-09-28T03:58:14.914Z,69.27
2018-09-28T04:00:45.526Z,69.28
2018-09-28T04:03:16.172Z,69.18
2018-09-28T04:05:46.684Z,69.61
2018-09-28T04:08:17.223Z,69.83
2018-09-28T04:10:47.651Z,69.72
2018-09-28T04:13:18.195Z,69.86
2018-09-28T04:15:48.869Z,69.54
2018-09-28T04:18:19.230Z,69.32
2018-09-28T04:20:49.731Z,69.41
2018-09-28T04:23:20.156Z,68.84
2018-09-28T04:25:50.635Z,69.99
2018-09-28T04:28:21.336Z,71.01
2018-09-28T04:30:52.036Z,72.32
2018-09-28T04:33:22.422Z,71.88
2018-09-28T04:35:54.254Z,71.80
2018-09-28T04:38:24.818Z,71.89
2018-09-28T04:40:55.429Z,72.18
2018-09-28T04:43:25.923Z,72.11
2018-09-28T04:45:56.494Z,72.26
2018-09-28T04:48:26.986Z,72.18
2018-09-28T04:50:57.461Z,72.33
2018-09-28T04:53:27.897Z,72.26
2018-09-28T04:55:58.472Z,72.19
2018-09-28T04:58:28.976Z,71.87
2018-09-28T05:00:59.446Z,70.93
2018-09-28T05:03:30.043Z,71.25
2018-09-28T05:06:00.438Z,71.08
2018-09-28T05:08:30.961Z,70.90
2018-09-28T05:11:01.653Z,70.99
2018-09-28T05:13:32.812Z,71.82
2018-09-28T05:16:03.216Z,72.04
2018-09-28T05:18:33.667Z,71.32
2018-09-28T05:21:04.944Z,71.07
2018-09-28T05:23:36.021Z,70.93
2018-09-28T05:26:07.890Z,70.22
2018-09-28T05:28:38.362Z,70.08
2018-09-28T05:31:09.489Z,70.07
2018-09-28T05:33:39.782Z,70.04
2018-09-28T05:36:10.256Z,68.59
2018-09-28T05:38:40.695Z,64.90
2018-09-28T05:41:11.271Z,59.48
2018-09-28T05:43:41.977Z,56.38
2018-09-28T05:46:13.547Z,53.66
2018-09-28T05:48:44.217Z,50.80
2018-09-28T05:51:14.666Z,49.27
2018-09-28T05:53:45.347Z,49.65
2018-09-28T05:56:16.517Z,47.34
2018-09-28T05:58:52.258Z,46.05
2018-09-28T06:01:28.071Z,45.75
2018-09-28T06:04:03.688Z,43.92
2018-09-28T06:06:34.307Z,43.25
2018-09-28T06:09:06.684Z,42.55
2018-09-28T06:11:37.274Z,41.38
2018-09-28T06:14:08.356Z,42.01
2018-09-28T06:16:38.810Z,42.83
2018-09-28T06:19:09.317Z,40.33
2018-09-28T06:21:39.914Z,38.58
2018-09-28T06:24:10.598Z,37.08
2018-09-28T06:26:41.230Z,36.33
2018-09-28T06:29:12.396Z,36.27
2018-09-28T06:31:43.097Z,37.10
2018-09-28T06:34:14.009Z,36.78
2018-09-28T06:36:44.812Z,37.56
2018-09-28T06:39:15.631Z,36.40
2018-09-28T06:41:47.339Z,34.58
2018-09-28T06:44:18.045Z,32.70
2018-09-28T06:46:48.646Z,30.49
2018-09-28T06:49:19.085Z,29.77
2018-09-28T06:51:49.633Z,28.85
2018-09-28T06:54:20.230Z,28.78
2018-09-28T06:56:50.649Z,29.46
2018-09-28T06:59:22.293Z,28.53
2018-09-28T07:01:52.832Z,28.02
2018-09-28T07:04:23.414Z,26.80
2018-09-28T07:06:53.834Z,26.67
2018-09-28T07:09:24.362Z,26.32
2018-09-28T07:11:54.963Z,26.27
2018-09-28T07:14:25.636Z,26.64
2018-09-28T07:16:56.248Z,26.41
2018-09-28T07:19:27.135Z,26.09
2018-09-28T07:21:57.648Z,25.99
2018-09-28T07:24:28.870Z,24.85
2018-09-28T07:27:01.188Z,24.82
2018-09-28T07:29:31.779Z,24.47
2018-09-28T07:32:03.270Z,25.29
2018-09-28T07:34:34.130Z,24.31
2018-09-28T07:37:05.085Z,23.03
2018-09-28T07:39:36.884Z,22.51
2018-09-28T07:42:07.407Z,22.86
2018-09-28T07:44:38.088Z,21.96
2018-09-28T07:47:08.985Z,21.56
2018-09-28T07:49:40.338Z,21.24
2018-09-28T07:52:11.510Z,20.76
2018-09-28T07:54:42.887Z,20.13
2018-09-28T07:57:13.170Z,22.57
2018-09-28T07:59:43.720Z,20.05
2018-09-28T08:02:14.296Z,19.38
2018-09-28T08:04:44.828Z,19.00
2018-09-28T08:07:15.558Z,17.37
2018-09-28T08:09:46.263Z,16.84
2018-09-28T08:12:17.200Z,16.71
2018-09-28T08:14:47.823Z,15.65
2018-09-28T08:17:18.443Z,15.62
2018-09-28T08:19:49.079Z,14.77
2018-09-28T08:22:19.860Z,14.27
2018-09-28T08:24:50.658Z,13.99
2018-09-28T08:27:21.478Z,12.70
2018-09-28T08:29:52.027Z,12.14
2018-09-28T08:32:22.700Z,12.96
2018-09-28T08:34:54.828Z,12.54
2018-09-28T08:37:25.472Z,12.32
2018-09-28T08:39:55.951Z,12.61
2018-09-28T08:42:26.759Z,11.90
2018-09-28T08:44:57.623Z,11.57
2018-09-28T08:47:28.174Z,11.67
2018-09-28T08:49:59.035Z,11.32
2018-09-28T08:52:30.102Z,11.46
2018-09-28T08:55:00.892Z,11.87
2018-09-28T08:57:31.440Z,11.56
2018-09-28T09:00:01.885Z,11.55
2018-09-28T09:02:32.944Z,11.46
2018-09-28T09:05:03.938Z,11.99
2018-09-28T09:07:34.542Z,11.06
2018-09-28T09:10:06.355Z,10.88
2018-09-28T09:12:37.765Z,10.35
2018-09-28T09:15:08.777Z,10.71
2018-09-28T09:17:39.312Z,10.92
2018-09-28T09:20:09.897Z,10.48
2018-09-28T09:22:40.685Z,11.52
2018-09-28T09:25:11.365Z,10.63
2018-09-28T09:27:41.939Z,9.42
2018-09-28T09:30:12.788Z,9.15
2018-09-28T09:32:43.843Z,8.81
2018-09-28T09:35:15.563Z,8.37
2018-09-28T09:37:46.215Z,8.42
2018-09-28T09:40:16.921Z,8.18
2018-09-28T09:42:47.500Z,7.85
2018-09-28T09:45:18.481Z,7.73
2018-09-28T09:47:49.165Z,8.11
2018-09-28T09:50:19.741Z,7.46
2018-09-28T09:52:50.813Z,7.75
2018-09-28T09:55:21.617Z,8.33
2018-09-28T09:57:52.367Z,7.80
2018-09-28T10:00:28.418Z,7.81
2018-09-28T10:03:03.504Z,7.69
2018-09-28T10:05:34.447Z,7.45
2018-09-28T10:08:04.800Z,6.62
2018-09-28T10:10:35.954Z,7.27
2018-09-28T10:13:06.656Z,6.78
2018-09-28T10:15:37.138Z,7.09
2018-09-28T10:18:09.058Z,7.02
2018-09-28T10:20:39.486Z,6.67
2018-09-28T10:23:10.088Z,8.29
2018-09-28T10:25:40.740Z,7.25
2018-09-28T10:28:11.275Z,6.77
2018-09-28T10:30:41.967Z,6.26
2018-09-28T10:33:12.505Z,6.98
2018-09-28T10:35:43.200Z,7.11
2018-09-28T10:38:13.852Z,6.96
2018-09-28T10:40:44.643Z,7.02
2018-09-28T10:43:15.658Z,6.65
2018-09-28T10:45:46.477Z,6.40
2018-09-28T10:48:18.223Z,6.33
2018-09-28T10:50:48.943Z,6.09
2018-09-28T10:53:19.752Z,6.66
2018-09-28T10:55:50.522Z,6.17
2018-09-28T10:58:21.401Z,6.78
2018-09-28T11:00:52.068Z,6.94
2018-09-28T11:03:22.683Z,6.27
2018-09-28T11:05:53.876Z,6.38
2018-09-28T11:08:24.553Z,6.57
2018-09-28T11:10:55.332Z,6.74
2018-09-28T11:13:25.843Z,7.13
2018-09-28T11:15:56.331Z,6.44
2018-09-28T11:18:26.885Z,6.80
2018-09-28T11:20:57.451Z,6.54
2018-09-28T11:23:28.337Z,7.33
2018-09-28T11:25:58.944Z,6.44
2018-09-28T11:28:29.550Z,7.28
2018-09-28T11:30:59.934Z,6.59
2018-09-28T11:33:30.533Z,6.26
2018-09-28T11:36:01.533Z,6.08
2018-09-28T11:38:31.969Z,6.22
2018-09-28T11:41:02.511Z,6.61
2018-09-28T11:43:33.123Z,6.41
2018-09-28T11:46:03.632Z,7.38
2018-09-28T11:48:34.558Z,6.29
2018-09-28T11:51:05.608Z,6.76
2018-09-28T11:53:36.917Z,6.90
2018-09-28T11:56:08.133Z,6.09
2018-09-28T11:58:38.895Z,6.95
2018-09-28T12:01:09.805Z,7.12
2018-09-28T12:03:40.821Z,6.97
2018-09-28T12:06:11.759Z,6.84
2018-09-28T12:08:42.560Z,5.73
2018-09-28T12:11:13.788Z,6.24
2018-09-28T12:13:44.501Z,6.56
2018-09-28T12:16:16.270Z,5.96
2018-09-28T12:18:47.346Z,6.48
2018-09-28T12:21:17.988Z,6.70
2018-09-28T12:23:48.667Z,6.60
2018-09-28T12:26:19.361Z,6.35
2018-09-28T12:28:50.267Z,5.92
2018-09-28T12:31:21.546Z,6.18
2018-09-28T12:33:52.398Z,6.00
2018-09-28T12:36:23.595Z,6.51
2018-09-28T12:38:55.976Z,6.76
2018-09-28T12:41:26.734Z,6.80
2018-09-28T12:43:58.220Z,6.88
2018-09-28T12:46:28.825Z,6.60
2018-09-28T12:48:59.545Z,6.60
2018-09-28T12:51:30.155Z,6.48
2018-09-28T12:54:00.834Z,6.25
2018-09-28T12:56:31.562Z,6.05
2018-09-28T12:59:02.342Z,7.25
2018-09-28T13:01:33.058Z,6.47
2018-09-28T13:04:03.565Z,6.53
2018-09-28T13:06:34.163Z,6.96
2018-09-28T13:09:05.814Z,7.29
2018-09-28T13:11:36.718Z,7.02
2018-09-28T13:14:07.324Z,6.75
2018-09-28T13:16:38.075Z,7.12
2018-09-28T13:19:08.964Z,6.92
2018-09-28T13:21:39.474Z,6.91
2018-09-28T13:24:10.105Z,6.85
2018-09-28T13:26:41.100Z,6.90
2018-09-28T13:29:11.668Z,6.89
2018-09-28T13:31:42.289Z,6.77
2018-09-28T13:34:12.717Z,7.42
2018-09-28T13:36:43.380Z,7.71
2018-09-28T13:39:13.997Z,7.24
2018-09-28T13:41:44.648Z,7.12
2018-09-28T13:44:15.323Z,7.06
2018-09-28T13:46:46.113Z,7.16
2018-09-28T13:49:16.641Z,7.16
2018-09-28T13:51:47.905Z,7.42
2018-09-28T13:54:18.779Z,7.23
2018-09-28T13:56:49.799Z,7.41
2018-09-28T13:59:20.425Z,7.00
2018-09-28T14:01:52.183Z,7.49
2018-09-28T14:04:22.912Z,7.45
2018-09-28T14:06:53.466Z,7.46
2018-09-28T14:09:24.047Z,7.76
2018-09-28T14:11:54.569Z,8.39
2018-09-28T14:14:25.259Z,7.36
2018-09-28T14:16:55.894Z,7.38
2018-09-28T14:19:26.374Z,7.63
2018-09-28T14:21:56.942Z,7.45
2018-09-28T14:24:27.754Z,7.75
2018-09-28T14:26:58.327Z,7.69
2018-09-28T14:29:29.039Z,7.72
2018-09-28T14:32:00.094Z,8.05
2018-09-28T14:34:30.634Z,7.85
2018-09-28T14:37:01.530Z,8.13
2018-09-28T14:39:32.037Z,7.70
2018-09-28T14:42:02.923Z,8.80
2018-09-28T14:44:33.340Z,8.25
2018-09-28T14:47:03.905Z,8.66
2018-09-28T14:49:34.451Z,8.63
2018-09-28T14:52:04.900Z,8.82
2018-09-28T14:54:35.626Z,8.88
2018-09-28T14:57:06.143Z,8.90
2018-09-28T14:59:36.700Z,9.77
2018-09-28T15:02:07.789Z,9.23
2018-09-28T15:04:38.343Z,9.10
2018-09-28T15:07:09.448Z,9.94
2018-09-28T15:09:40.088Z,9.85
2018-09-28T15:12:10.856Z,9.68
2018-09-28T15:14:42.292Z,9.83
2018-09-28T15:17:13.190Z,9.47
2018-09-28T15:19:43.943Z,10.37
2018-09-28T15:22:14.590Z,10.50
2018-09-28T15:24:45.386Z,10.54
2018-09-28T15:27:16.009Z,10.13
2018-09-28T15:29:47.221Z,10.64
2018-09-28T15:32:17.755Z,11.15
2018-09-28T15:34:48.288Z,11.14
2018-09-28T15:37:18.921Z,11.35
2018-09-28T15:39:49.641Z,11.65
2018-09-28T15:42:20.476Z,10.88
2018-09-28T15:44:51.366Z,11.73
2018-09-28T15:47:22.001Z,11.21
2018-09-28T15:49:52.755Z,11.65
2018-09-28T15:52:23.482Z,12.24
2018-09-28T15:54:54.840Z,11.90
2018-09-28T15:57:25.579Z,12.33
2018-09-28T15:59:56.206Z,12.77
2018-09-28T16:02:26.849Z,12.51
2018-09-28T16:04:57.423Z,12.52
2018-09-28T16:07:28.164Z,12.98
2018-09-28T16:09:58.779Z,13.04
2018-09-28T16:12:29.297Z,13.89
2018-09-28T16:14:59.864Z,14.25
2018-09-28T16:17:30.420Z,15.20
2018-09-28T16:20:01.041Z,15.95
2018-09-28T16:22:31.497Z,16.80
2018-09-28T16:25:02.083Z,16.99
2018-09-28T16:27:32.647Z,18.13
2018-09-28T16:30:03.055Z,19.95
2018-09-28T16:32:33.625Z,19.71
2018-09-28T16:35:04.204Z,22.43
2018-09-28T16:37:35.738Z,22.66
2018-09-28T16:40:06.323Z,22.77
2018-09-28T16:42:37.117Z,23.46
2018-09-28T16:45:08.018Z,24.32
2018-09-28T16:47:38.514Z,25.75
2018-09-28T16:50:09.406Z,26.78
2018-09-28T16:52:39.900Z,28.62
2018-09-28T16:55:10.588Z,28.79
2018-09-28T16:57:41.294Z,28.72
2018-09-28T17:00:11.860Z,28.79
2018-09-28T17:02:42.340Z,30.13
2018-09-28T17:05:13.031Z,31.25
2018-09-28T17:07:43.612Z,32.09
2018-09-28T17:10:14.451Z,33.07
2018-09-28T17:12:45.237Z,32.88
2018-09-28T17:15:15.913Z,33.43
2018-09-28T17:17:46.738Z,33.45
2018-09-28T17:20:17.885Z,33.94
2018-09-28T17:22:48.902Z,34.79
2018-09-28T17:25:19.801Z,34.74
2018-09-28T17:27:50.378Z,34.97
2018-09-28T17:30:23.327Z,35.08
2018-09-28T17:32:56.707Z,34.88
2018-09-28T17:35:28.575Z,36.14
2018-09-28T17:37:59.868Z,36.86
2018-09-28T17:40:30.433Z,37.52
2018-09-28T17:43:01.390Z,37.40
2018-09-28T17:45:32.372Z,37.36
2018-09-28T17:48:03.080Z,37.38
2018-09-28T17:50:35.515Z,37.31
2018-09-28T17:53:07.479Z,37.78
2018-09-28T17:55:39.435Z,38.79
2018-09-28T17:58:14.802Z,38.76
2018-09-28T18:00:46.015Z,38.77
2018-09-28T18:03:17.006Z,39.01
2018-09-28T18:05:47.947Z,39.14
2018-09-28T18:08:18.865Z,39.70
2018-09-28T18:10:49.638Z,40.30
2018-09-28T18:13:20.411Z,39.43
2018-09-28T18:15:51.534Z,39.85
2018-09-28T18:18:22.407Z,39.98
2018-09-28T18:20:53.583Z,40.07
2018-09-28T18:23:24.762Z,40.78
2018-09-28T18:25:55.467Z,42.30
2018-09-28T18:28:26.391Z,41.91
2018-09-28T18:30:57.248Z,42.43
2018-09-28T18:33:28.011Z,42.63
2018-09-28T18:35:58.716Z,43.31
2018-09-28T18:38:30.955Z,44.72
2018-09-28T18:41:01.656Z,44.92
2018-09-28T18:43:32.387Z,44.84
2018-09-28T18:46:03.022Z,44.07
2018-09-28T18:48:33.795Z,43.84
2018-09-28T18:51:04.615Z,44.52
2018-09-28T18:53:35.665Z,44.87
2018-09-28T18:56:06.359Z,44.52
2018-09-28T18:58:37.491Z,44.42
2018-09-28T19:01:08.632Z,44.84
2018-09-28T19:03:39.229Z,45.54
2018-09-28T19:06:11.542Z,46.13
2018-09-28T19:08:42.587Z,46.65
2018-09-28T19:11:13.551Z,46.74
2018-09-28T19:13:44.603Z,46.41
2018-09-28T19:16:17.780Z,46.55
2018-09-28T19:18:48.703Z,46.62
2018-09-28T19:21:19.437Z,46.50
2018-09-28T19:23:50.546Z,47.41
2018-09-28T19:26:25.034Z,48.47
2018-09-28T19:28:55.915Z,48.99
2018-09-28T19:31:26.771Z,48.99
2018-09-28T19:33:57.991Z,49.53
2018-09-28T19:36:29.168Z,48.59
2018-09-28T19:39:03.510Z,48.95
2018-09-28T19:41:36.265Z,49.08
2018-09-28T19:44:08.721Z,49.10
2018-09-28T19:46:39.880Z,50.07
2018-09-28T19:49:12.297Z,50.18
2018-09-28T19:51:43.297Z,50.93
2018-09-28T19:54:14.013Z,50.53
2018-09-28T19:56:44.692Z,50.44
2018-09-28T19:59:15.899Z,51.02
2018-09-28T20:01:46.512Z,51.90
2018-09-28T20:04:17.270Z,51.18
2018-09-28T20:06:48.170Z,50.48
2018-09-28T20:09:19.526Z,50.19
2018-09-28T20:11:50.190Z,50.48
2018-09-28T20:14:20.967Z,50.67
2018-09-28T20:16:52.060Z,50.06
2018-09-28T20:19:23.014Z,48.97
2018-09-28T20:21:53.613Z,48.31
2018-09-28T20:24:24.884Z,49.03
2018-09-28T20:26:55.864Z,47.84
2018-09-28T20:29:26.777Z,48.41
2018-09-28T20:31:58.242Z,49.09
2018-09-28T20:34:29.529Z,49.18
2018-09-28T20:37:00.223Z,51.27
2018-09-28T20:39:31.031Z,50.36
2018-09-28T20:42:01.790Z,50.42
2018-09-28T20:44:32.761Z,49.98
2018-09-28T20:47:04.950Z,49.83
2018-09-28T20:49:35.708Z,50.55
2018-09-28T20:52:06.882Z,50.77
2018-09-28T20:54:37.647Z,51.09
2018-09-28T20:57:08.978Z,51.52
2018-09-28T20:59:39.866Z,52.65
2018-09-28T21:02:10.584Z,55.01
2018-09-28T21:04:41.270Z,55.97
2018-09-28T21:07:11.952Z,57.13
2018-09-28T21:09:42.535Z,57.56
2018-09-28T21:12:13.349Z,57.58
2018-09-28T21:14:44.039Z,57.97
2018-09-28T21:17:14.624Z,58.52
2018-09-28T21:19:45.214Z,58.42
2018-09-28T21:22:15.849Z,58.15
2018-09-28T21:24:46.612Z,58.82
2018-09-28T21:27:17.168Z,59.21
2018-09-28T21:29:47.698Z,58.91
2018-09-28T21:32:18.256Z,58.54
2018-09-28T21:34:48.942Z,57.80
2018-09-28T21:37:19.368Z,58.90
2018-09-28T21:39:49.986Z,58.97
2018-09-28T21:42:20.796Z,58.86
2018-09-28T21:44:51.568Z,58.71
2018-09-28T21:47:22.164Z,58.11
2018-09-28T21:49:52.715Z,58.12
2018-09-28T21:52:23.396Z,57.48
2018-09-28T21:54:53.973Z,57.33
2018-09-28T21:57:24.601Z,57.81
2018-09-28T21:59:55.269Z,58.14
2018-09-28T22:02:26.027Z,59.41
2018-09-28T22:04:56.636Z,59.26
2018-09-28T22:07:27.310Z,60.15
2018-09-28T22:09:57.944Z,60.59
2018-09-28T22:12:28.366Z,61.06
2018-09-28T22:14:58.907Z,62.03
2018-09-28T22:17:29.962Z,62.64
2018-09-28T22:20:00.452Z,62.87
2018-09-28T22:22:30.879Z,62.85
2018-09-28T22:25:01.364Z,62.61
2018-09-28T22:27:31.897Z,62.62
2018-09-28T22:30:02.427Z,63.04
2018-09-28T22:32:32.805Z,61.64
2018-09-28T22:35:03.303Z,61.24
2018-09-28T22:37:33.758Z,62.96
2018-09-28T22:40:04.457Z,62.97
2018-09-28T22:42:35.000Z,61.83
2018-09-28T22:45:05.575Z,63.54
2018-09-28T22:47:36.444Z,65.31
2018-09-28T22:50:07.410Z,65.52
2018-09-28T22:52:37.917Z,66.01
2018-09-28T22:55:08.542Z,66.85
2018-09-28T22:57:39.197Z,67.28
2018-09-28T23:00:09.832Z,67.85
2018-09-28T23:02:40.308Z,68.00
2018-09-28T23:05:12.638Z,67.97
2018-09-28T23:07:43.221Z,68.40
2018-09-28T23:10:14.666Z,68.54
2018-09-28T23:12:45.073Z,68.17
2018-09-28T23:15:15.537Z,68.32
2018-09-28T23:17:46.051Z,68.73
2018-09-28T23:20:16.495Z,68.19
2018-09-28T23:22:47.011Z,67.67
2018-09-28T23:25:17.588Z,67.75
2018-09-28T23:27:48.044Z,68.42
2018-09-28T23:30:18.496Z,68.70
2018-09-28T23:32:48.974Z,69.46
2018-09-28T23:35:20.503Z,70.27
2018-09-28T23:37:50.788Z,69.63
2018-09-28T23:40:21.226Z,70.23
2018-09-28T23:42:51.645Z,70.61
2018-09-28T23:45:22.167Z,71.19
2018-09-28T23:47:52.661Z,71.65
2018-09-28T23:50:23.814Z,71.57
2018-09-28T23:52:54.382Z,70.99
2018-09-28T23:55:25.009Z,70.32
2018-09-28T23:57:55.527Z,70.17
